| time (UTC) | temp C | wind direction | speed KPH | gust KPH | rain 1hr cm | rain 24hr cm | rain mn cm | humidity % | barometer mb |
| 20260508100045 | 18 | 243 | 4.8 | 12.9 | 0.00 | 0.00 | 0.00 | 57 | 1011.6 |
| 20260508094544 | 17 | 236 | 3.2 | 17.7 | 0.00 | 0.00 | 0.00 | 60 | 1011.6 |
| 20260508093050 | 17 | 228 | 8.0 | 16.1 | 0.00 | 0.00 | 0.00 | 62 | 1011.7 |
| 20260508091606 | 17 | 204 | 4.8 | 12.9 | 0.00 | 0.00 | 0.00 | 64 | 1011.8 |
| 20260508090058 | 16 | 188 | 4.8 | 14.5 | 0.00 | 0.00 | 0.00 | 68 | 1011.7 |
| 20260508084545 | 16 | 243 | 4.8 | 12.9 | 0.00 | 0.00 | 0.00 | 70 | 1011.7 |
| 20260508083044 | 15 | 245 | 1.6 | 9.7 | 0.00 | 0.00 | 0.00 | 72 | 1011.6 |
| 20260508081547 | 14 | 0 | 1.6 | 8.0 | 0.00 | 0.00 | 0.00 | 77 | 1011.5 |
| 20260508080047 | 13 | 223 | 4.8 | 9.7 | 0.00 | 0.00 | 0.00 | 77 | 1011.5 |
| 20260508074548 | 13 | 230 | 1.6 | 8.0 | 0.00 | 0.00 | 0.00 | 79 | 1011.2 |
| 20260508073049 | 13 | 231 | 0.0 | 9.7 | 0.00 | 0.00 | 0.00 | 78 | 1011.2 |
| 20260508071545 | 13 | 225 | 4.8 | 9.7 | 0.00 | 0.00 | 0.00 | 76 | 1011.3 |
| 20260508070040 | 12 | 213 | 3.2 | 6.4 | 0.00 | 0.00 | 0.00 | 79 | 1011.3 |
| 20260508064550 | 12 | 250 | 3.2 | 8.0 | 0.00 | 0.00 | 0.00 | 79 | 1011.2 |
| 20260508063113 | 12 | 0 | 0.0 | 3.2 | 0.00 | 0.00 | 0.00 | 80 | 1011.1 |
| 20260508061543 | 12 | 231 | 0.0 | 1.6 | 0.00 | 0.00 | 0.00 | 82 | 1010.8 |
| 20260508060049 | 12 | 0 | 3.2 | 4.8 | 0.00 | 0.00 | 0.00 | 82 | 1010.6 |
| 20260508054549 | 12 | 236 | 3.2 | 6.4 | 0.00 | 0.00 | 0.00 | 82 | 1010.6 |
| 20260508053053 | 12 | 0 | 0.0 | 1.6 | 0.00 | 0.00 | 0.00 | 82 | 1010.1 |
| 20260508051609 | 12 | 231 | 0.0 | 4.8 | 0.00 | 0.00 | 0.00 | 82 | 1010.0 |
| 20260508050051 | 12 | 236 | 1.6 | 4.8 | 0.00 | 0.00 | 0.00 | 82 | 1010.0 |
| 20260508044551 | 12 | 0 | 0.0 | 1.6 | 0.00 | 0.00 | 0.00 | 82 | 1009.7 |
| 20260508043049 | 12 | 231 | 0.0 | 6.4 | 0.00 | 0.00 | 0.00 | 82 | 1010.1 |
| 20260508041551 | 12 | 193 | 1.6 | 6.4 | 0.00 | 0.00 | 0.00 | 82 | 1010.3 |
| 20260508040047 | 12 | 228 | 0.0 | 3.2 | 0.00 | 0.00 | 0.00 | 81 | 1010.0 |
| 20260508034552 | 12 | 224 | 3.2 | 6.4 | 0.00 | 0.00 | 0.00 | 81 | 1010.2 |
| 20260508033049 | 12 | 210 | 4.8 | 8.0 | 0.00 | 0.00 | 0.00 | 81 | 1010.1 |
| 20260508031551 | 12 | 262 | 3.2 | 8.0 | 0.00 | 0.00 | 0.00 | 80 | 1010.1 |
| 20260508030048 | 12 | 226 | 3.2 | 8.0 | 0.00 | 0.00 | 0.00 | 80 | 1010.1 |
| 20260508024546 | 13 | 227 | 1.6 | 6.4 | 0.00 | 0.00 | 0.00 | 79 | 1010.0 |
| 20260508023045 | 13 | 232 | 3.2 | 8.0 | 0.00 | 0.00 | 0.00 | 78 | 1010.0 |
| 20260508021550 | 13 | 219 | 3.2 | 6.4 | 0.00 | 0.00 | 0.00 | 78 | 1010.1 |
| 20260508020043 | 13 | 244 | 3.2 | 8.0 | 0.00 | 0.00 | 0.00 | 78 | 1010.3 |
| 20260508014549 | 13 | 230 | 3.2 | 8.0 | 0.00 | 0.00 | 0.00 | 78 | 1010.3 |
| 20260508013041 | 13 | 233 | 3.2 | 9.7 | 0.00 | 0.00 | 0.00 | 77 | 1010.3 |
| 20260508011549 | 13 | 225 | 3.2 | 6.4 | 0.00 | 0.00 | 0.00 | 74 | 1010.6 |
| 20260508010058 | 14 | 256 | 0.0 | 4.8 | 0.00 | 0.00 | 0.00 | 71 | 1010.3 |
| 20260508004544 | 14 | 268 | 0.0 | 4.8 | 0.00 | 0.00 | 0.00 | 71 | 1010.2 |
| 20260508003044 | 14 | 0 | 0.0 | 1.6 | 0.00 | 0.00 | 0.00 | 71 | 1010.4 |
| 20260508001545 | 15 | 0 | 0.0 | 1.6 | 0.00 | 0.00 | 0.00 | 71 | 1010.4 |
| 20260508000048 | 15 | 262 | 1.6 | 4.8 | 0.00 | 0.00 | 0.00 | 72 | 1010.5 |
| 20260507234547 | 15 | 256 | 3.2 | 4.8 | 0.00 | 0.00 | 0.00 | 71 | 1010.5 |
| 20260507233045 | 15 | 254 | 0.0 | 4.8 | 0.00 | 0.00 | 0.00 | 71 | 1010.8 |
| 20260507231544 | 15 | 243 | 0.0 | 4.8 | 0.00 | 0.00 | 0.00 | 70 | 1010.9 |
| 20260507230058 | 15 | 225 | 1.6 | 9.7 | 0.00 | 0.00 | 0.00 | 70 | 1011.2 |
| 20260507224544 | 15 | 247 | 4.8 | 9.7 | 0.00 | 0.00 | 0.00 | 69 | 1011.1 |
| 20260507223133 | 15 | 257 | 1.6 | 9.7 | 0.00 | 0.00 | 0.00 | 69 | 1011.2 |
| 20260507221547 | 16 | 257 | 6.4 | 12.9 | 0.00 | 0.00 | 0.00 | 68 | 1011.1 |
| 20260507220042 | 16 | 260 | 6.4 | 16.1 | 0.00 | 0.00 | 0.00 | 67 | 1011.3 |
| 20260507214551 | 16 | 240 | 4.8 | 16.1 | 0.00 | 0.00 | 0.00 | 66 | 1011.2 |
| 20260507213042 | 16 | 230 | 4.8 | 11.3 | 0.00 | 0.00 | 0.00 | 66 | 1011.0 |
| 20260507211553 | 16 | 242 | 3.2 | 12.9 | 0.00 | 0.00 | 0.00 | 65 | 1010.7 |
| 20260507210055 | 17 | 200 | 1.6 | 12.9 | 0.00 | 0.00 | 0.00 | 63 | 1010.5 |
| 20260507204549 | 17 | 253 | 3.2 | 17.7 | 0.00 | 0.00 | 0.00 | 60 | 1010.3 |
| 20260507203054 | 18 | 236 | 4.8 | 17.7 | 0.00 | 0.00 | 0.00 | 57 | 1010.0 |
| 20260507201552 | 18 | 284 | 6.4 | 17.7 | 0.00 | 0.00 | 0.00 | 53 | 1009.7 |
| 20260507200054 | 19 | 242 | 3.2 | 11.3 | 0.00 | 0.00 | 0.00 | 51 | 1009.4 |
| 20260507194549 | 20 | 253 | 3.2 | 12.9 | 0.00 | 0.00 | 0.00 | 50 | 1009.3 |
| 20260507193051 | 20 | 249 | 3.2 | 12.9 | 0.00 | 0.00 | 0.00 | 48 | 1009.1 |
| 20260507191549 | 20 | 238 | 0.0 | 9.7 | 0.00 | 0.00 | 0.00 | 48 | 1008.9 |
| 20260507190050 | 21 | 178 | 3.2 | 8.0 | 0.00 | 0.00 | 0.00 | 47 | 1008.8 |
| 20260507184543 | 21 | 222 | 0.0 | 8.0 | 0.00 | 0.00 | 0.00 | 47 | 1008.5 |
| 20260507183042 | 21 | 219 | 1.6 | 11.3 | 0.00 | 0.00 | 0.00 | 47 | 1008.3 |
| 20260507181543 | 21 | 217 | 3.2 | 14.5 | 0.00 | 0.00 | 0.00 | 46 | 1008.3 |
| 20260507180041 | 22 | 236 | 3.2 | 17.7 | 0.00 | 0.00 | 0.00 | 46 | 1008.1 |
| 20260507174554 | 22 | 0 | 0.0 | 4.8 | 0.00 | 0.00 | 0.00 | 46 | 1008.1 |
| 20260507173044 | 22 | 0 | 0.0 | 6.4 | 0.00 | 0.00 | 0.00 | 46 | 1008.1 |
| 20260507171554 | 22 | 226 | 3.2 | 16.1 | 0.00 | 0.00 | 0.00 | 45 | 1008.1 |
| 20260507170048 | 22 | 270 | 4.8 | 11.3 | 0.00 | 0.00 | 0.00 | 42 | 1008.0 |
| 20260507164541 | 23 | 243 | 3.2 | 11.3 | 0.00 | 0.00 | 0.00 | 45 | 1008.0 |
| 20260507163047 | 22 | 213 | 1.6 | 9.7 | 0.00 | 0.00 | 0.00 | 39 | 1008.0 |
| 20260507161553 | 22 | 266 | 6.4 | 17.7 | 0.00 | 0.00 | 0.00 | 41 | 1008.1 |
| 20260507160044 | 22 | 237 | 1.6 | 9.7 | 0.00 | 0.00 | 0.00 | 41 | 1008.2 |
| 20260507154545 | 22 | 232 | 4.8 | 12.9 | 0.00 | 0.00 | 0.00 | 41 | 1008.2 |
| 20260507153052 | 23 | 279 | 3.2 | 9.7 | 0.00 | 0.00 | 0.00 | 39 | 1008.3 |
| 20260507151540 | 23 | 253 | 8.0 | 16.1 | 0.00 | 0.00 | 0.00 | 40 | 1008.2 |
| 20260507150052 | 22 | 184 | 6.4 | 12.9 | 0.00 | 0.00 | 0.00 | 41 | 1008.6 |
| 20260507144545 | 23 | 232 | 6.4 | 16.1 | 0.00 | 0.00 | 0.00 | 40 | 1008.7 |
| 20260507143050 | 23 | 215 | 4.8 | 14.5 | 0.00 | 0.00 | 0.00 | 42 | 1008.9 |
| 20260507141542 | 23 | 224 | 1.6 | 12.9 | 0.00 | 0.00 | 0.00 | 40 | 1008.9 |
| 20260507140046 | 23 | 288 | 1.6 | 11.3 | 0.00 | 0.00 | 0.00 | 41 | 1009.1 |
| 20260507134553 | 23 | 231 | 9.7 | 17.7 | 0.00 | 0.00 | 0.00 | 41 | 1009.2 |
| 20260507133051 | 23 | 223 | 4.8 | 17.7 | 0.00 | 0.00 | 0.00 | 40 | 1009.3 |
| 20260507131545 | 22 | 103 | 6.4 | 16.1 | 0.00 | 0.00 | 0.00 | 42 | 1009.4 |
| 20260507130057 | 23 | 231 | 4.8 | 17.7 | 0.00 | 0.00 | 0.00 | 42 | 1009.6 |
| 20260507124559 | 22 | 105 | 1.6 | 9.7 | 0.00 | 0.00 | 0.00 | 45 | 1009.7 |
| 20260507123104 | 22 | 245 | 8.0 | 17.7 | 0.00 | 0.00 | 0.00 | 44 | 1010.0 |
| 20260507121545 | 22 | 243 | 8.0 | 17.7 | 0.00 | 0.00 | 0.00 | 44 | 1010.3 |
| 20260507120048 | 22 | 254 | 4.8 | 12.9 | 0.00 | 0.00 | 0.00 | 43 | 1010.4 |
| 20260507114547 | 22 | 244 | 3.2 | 9.7 | 0.00 | 0.00 | 0.00 | 44 | 1010.6 |
| 20260507113044 | 23 | 74 | 0.0 | 6.4 | 0.00 | 0.00 | 0.00 | 46 | 1010.7 |
| 20260507111544 | 21 | 221 | 0.0 | 14.5 | 0.00 | 0.00 | 0.00 | 50 | 1010.9 |
| 20260507110042 | 21 | 250 | 3.2 | 11.3 | 0.00 | 0.00 | 0.00 | 50 | 1010.9 |
| 20260507104554 | 20 | 259 | 1.6 | 12.9 | 0.00 | 0.00 | 0.00 | 52 | 1010.9 |
| 20260507103046 | 19 | 272 | 4.8 | 14.5 | 0.00 | 0.00 | 0.00 | 58 | 1011.0 |
| 20260507101556 | 18 | 241 | 4.8 | 9.7 | 0.00 | 0.00 | 0.00 | 61 | 1011.0 |